createdAt,value
2023-02-27T00:01:22.680Z,3.70
2023-02-27T00:03:50.203Z,3.76
2023-02-27T00:06:19.578Z,3.67
2023-02-27T00:08:46.694Z,3.77
2023-02-27T00:11:14.068Z,3.66
2023-02-27T00:13:41.265Z,3.70
2023-02-27T00:16:10.729Z,3.77
2023-02-27T00:18:39.200Z,3.62
2023-02-27T00:21:06.453Z,3.77
2023-02-27T00:23:33.655Z,3.66
2023-02-27T00:26:01.109Z,3.42
2023-02-27T00:28:28.678Z,3.19
2023-02-27T00:30:55.989Z,2.96
2023-02-27T00:33:23.639Z,2.66
2023-02-27T00:35:58.419Z,2.32
2023-02-27T00:38:26.323Z,2.09
2023-02-27T00:40:54.066Z,2.18
2023-02-27T00:43:21.631Z,2.51
2023-02-27T00:45:50.196Z,2.28
2023-02-27T00:48:17.298Z,2.27
2023-02-27T00:50:44.655Z,2.61
2023-02-27T00:53:12.972Z,2.97
2023-02-27T00:55:40.143Z,3.09
2023-02-27T00:58:07.617Z,3.09
2023-02-27T01:00:35.081Z,3.00
2023-02-27T01:03:02.274Z,2.73
2023-02-27T01:05:31.142Z,2.45
2023-02-27T01:07:59.909Z,2.31
2023-02-27T01:10:26.999Z,2.23
2023-02-27T01:12:54.188Z,2.30
2023-02-27T01:15:21.834Z,2.50
2023-02-27T01:17:49.276Z,2.68
2023-02-27T01:20:16.487Z,2.71
2023-02-27T01:22:45.802Z,2.81
2023-02-27T01:25:13.002Z,3.03
2023-02-27T01:27:40.774Z,3.05
2023-02-27T01:30:11.245Z,3.18
2023-02-27T01:32:38.600Z,3.24
2023-02-27T01:35:06.305Z,3.24
2023-02-27T01:37:33.751Z,3.14
2023-02-27T01:40:00.958Z,3.12
2023-02-27T01:42:28.974Z,3.21
2023-02-27T01:45:12.297Z,3.39
2023-02-27T01:47:45.138Z,3.45
2023-02-27T01:50:14.307Z,3.38
2023-02-27T01:52:42.171Z,3.30
2023-02-27T01:55:12.664Z,3.04
2023-02-27T01:57:41.115Z,3.03
2023-02-27T02:00:09.483Z,3.12
2023-02-27T02:02:43.286Z,3.04
2023-02-27T02:05:10.856Z,2.73
2023-02-27T02:07:38.616Z,2.73
2023-02-27T02:10:06.744Z,2.94
2023-02-27T02:12:38.381Z,2.84
2023-02-27T02:15:06.785Z,3.02
2023-02-27T02:17:41.132Z,3.40
2023-02-27T02:20:26.519Z,3.27
2023-02-27T02:23:20.241Z,3.00
2023-02-27T02:26:02.345Z,2.87
2023-02-27T02:28:39.011Z,3.05
2023-02-27T02:32:03.626Z,2.96
2023-02-27T02:34:43.179Z,2.95
2023-02-27T02:37:34.886Z,2.98
2023-02-27T02:40:41.177Z,2.87
2023-02-27T02:43:12.846Z,2.81
2023-02-27T02:46:02.426Z,2.83
2023-02-27T02:48:39.003Z,2.63
2023-02-27T02:51:10.598Z,2.66
2023-02-27T02:53:58.384Z,2.83
2023-02-27T02:56:31.962Z,2.71
2023-02-27T02:59:05.312Z,2.63
2023-02-27T03:01:40.675Z,2.95
2023-02-27T03:04:13.256Z,3.01
2023-02-27T03:06:44.318Z,3.10
2023-02-27T03:09:19.232Z,3.14
2023-02-27T03:11:49.286Z,3.11
2023-02-27T03:14:24.178Z,3.11
2023-02-27T03:16:53.744Z,3.12
2023-02-27T03:19:27.980Z,3.23
2023-02-27T03:22:05.896Z,3.17
2023-02-27T03:24:38.587Z,3.05
2023-02-27T03:27:07.724Z,3.21
2023-02-27T03:29:42.984Z,3.46
2023-02-27T03:32:18.946Z,3.37
2023-02-27T03:34:46.199Z,3.40
2023-02-27T03:37:16.249Z,3.34
2023-02-27T03:39:50.290Z,3.44
2023-02-27T03:42:33.409Z,3.31
2023-02-27T03:45:13.561Z,3.23
2023-02-27T03:47:41.062Z,3.07
2023-02-27T03:50:09.234Z,3.21
2023-02-27T03:52:36.433Z,3.48
2023-02-27T03:55:12.033Z,3.48
2023-02-27T03:57:40.462Z,3.41
2023-02-27T04:00:11.803Z,3.36
2023-02-27T04:02:41.830Z,3.40
2023-02-27T04:05:09.700Z,3.33
2023-02-27T04:07:58.311Z,3.42
2023-02-27T04:10:47.398Z,3.50
2023-02-27T04:13:42.213Z,3.46
2023-02-27T04:16:32.887Z,3.35
2023-02-27T04:19:30.932Z,3.23
2023-02-27T04:22:10.614Z,3.08
2023-02-27T04:24:48.969Z,3.03
2023-02-27T04:27:39.691Z,3.11
2023-02-27T04:30:36.925Z,3.53
2023-02-27T04:33:09.691Z,3.14
2023-02-27T04:35:47.483Z,2.87
2023-02-27T04:38:21.083Z,2.87
2023-02-27T04:41:05.879Z,3.06
2023-02-27T04:43:35.544Z,2.78
2023-02-27T04:46:03.443Z,2.73
2023-02-27T04:48:35.691Z,2.62
2023-02-27T04:51:12.380Z,2.54
2023-02-27T04:53:50.363Z,2.35
2023-02-27T04:56:25.934Z,2.36
2023-02-27T04:58:57.153Z,2.50
2023-02-27T05:01:55.538Z,2.51
2023-02-27T05:04:24.697Z,2.60
2023-02-27T05:06:54.512Z,2.65
2023-02-27T05:09:35.079Z,3.18
2023-02-27T05:12:05.476Z,3.19
2023-02-27T05:14:36.836Z,3.23
2023-02-27T05:17:17.118Z,3.44
2023-02-27T05:19:44.737Z,3.92
2023-02-27T05:22:17.892Z,4.21
2023-02-27T05:25:09.836Z,4.30
2023-02-27T05:27:47.351Z,4.45
2023-02-27T05:30:28.705Z,4.03
2023-02-27T05:33:15.726Z,3.72
2023-02-27T05:35:47.390Z,4.23
2023-02-27T05:38:20.606Z,4.51
2023-02-27T05:40:51.388Z,4.49
2023-02-27T05:43:24.831Z,4.12
2023-02-27T05:45:56.615Z,4.05
2023-02-27T05:48:28.090Z,4.14
2023-02-27T05:50:55.898Z,3.90
2023-02-27T05:53:26.018Z,3.45
2023-02-27T05:55:54.713Z,3.53
2023-02-27T05:58:31.016Z,3.40
2023-02-27T06:01:00.698Z,4.00
2023-02-27T06:03:29.887Z,4.26
2023-02-27T06:05:58.736Z,4.69
2023-02-27T06:08:26.558Z,4.66
2023-02-27T06:10:55.245Z,4.23
2023-02-27T06:13:24.027Z,4.04
2023-02-27T06:15:51.116Z,3.81
2023-02-27T06:18:19.777Z,3.81
2023-02-27T06:20:48.026Z,3.76
2023-02-27T06:23:15.145Z,3.45
2023-02-27T06:25:42.865Z,3.34
2023-02-27T06:28:10.172Z,3.27
2023-02-27T06:30:37.574Z,3.26
2023-02-27T06:33:05.509Z,3.30
2023-02-27T06:35:32.714Z,3.33
2023-02-27T06:37:59.931Z,3.27
2023-02-27T06:40:27.434Z,3.11
2023-02-27T06:42:54.598Z,3.20
2023-02-27T06:45:21.789Z,3.66
2023-02-27T06:47:49.192Z,3.64
2023-02-27T06:50:16.361Z,3.51
2023-02-27T06:52:43.459Z,3.58
2023-02-27T06:55:11.865Z,3.69
2023-02-27T06:57:39.229Z,3.89
2023-02-27T07:00:07.231Z,3.56
2023-02-27T07:02:34.702Z,3.53
2023-02-27T07:05:08.283Z,3.72
2023-02-27T07:07:37.875Z,3.61
2023-02-27T07:10:08.761Z,3.59
2023-02-27T07:12:36.155Z,3.74
2023-02-27T07:15:04.543Z,3.60
2023-02-27T07:17:31.766Z,3.21
2023-02-27T07:19:59.121Z,3.00
2023-02-27T07:22:26.257Z,2.83
2023-02-27T07:24:53.392Z,3.05
2023-02-27T07:27:20.818Z,3.40
2023-02-27T07:29:47.977Z,3.96
2023-02-27T07:32:15.314Z,4.32
2023-02-27T07:34:42.704Z,4.31
2023-02-27T07:37:09.852Z,4.38
2023-02-27T07:39:37.001Z,4.40
2023-02-27T07:42:05.189Z,4.64
2023-02-27T07:44:33.761Z,5.13
2023-02-27T07:47:01.419Z,4.56
2023-02-27T07:49:29.103Z,4.54
2023-02-27T07:51:56.590Z,4.32
2023-02-27T07:54:29.080Z,3.53
2023-02-27T07:56:56.429Z,3.67
2023-02-27T07:59:23.624Z,3.83
2023-02-27T08:01:50.868Z,3.22
2023-02-27T08:04:18.262Z,3.09
2023-02-27T08:06:45.401Z,3.27
2023-02-27T08:09:12.717Z,3.41
2023-02-27T08:11:40.110Z,3.49
2023-02-27T08:14:07.429Z,3.39
2023-02-27T08:16:34.822Z,3.23
2023-02-27T08:19:02.817Z,3.57
2023-02-27T08:21:30.527Z,3.69
2023-02-27T08:23:57.834Z,3.61
2023-02-27T08:26:25.525Z,4.29
2023-02-27T08:28:52.920Z,4.43
2023-02-27T08:31:20.082Z,4.90
2023-02-27T08:33:49.612Z,5.80
2023-02-27T08:36:20.586Z,6.31
2023-02-27T08:38:47.998Z,6.78
2023-02-27T08:41:15.286Z,6.85
2023-02-27T08:43:42.359Z,6.90
2023-02-27T08:46:09.817Z,7.02
2023-02-27T08:48:36.940Z,6.66
2023-02-27T08:51:04.032Z,6.84
2023-02-27T08:53:31.992Z,7.37
2023-02-27T08:55:59.100Z,7.66
2023-02-27T08:58:26.261Z,7.61
2023-02-27T09:00:53.717Z,7.21
2023-02-27T09:03:21.547Z,6.64
2023-02-27T09:05:49.733Z,6.72
2023-02-27T09:08:17.103Z,7.18
2023-02-27T09:10:47.366Z,6.92
2023-02-27T09:13:14.662Z,6.92
2023-02-27T09:15:42.046Z,6.65
2023-02-27T09:18:09.295Z,6.18
2023-02-27T09:20:36.494Z,5.68
2023-02-27T09:23:04.302Z,5.42
2023-02-27T09:25:31.533Z,5.84
2023-02-27T09:27:58.676Z,6.10
2023-02-27T09:30:26.149Z,5.70
2023-02-27T09:32:53.430Z,5.65
2023-02-27T09:35:20.610Z,6.43
2023-02-27T09:37:49.560Z,5.91
2023-02-27T09:40:26.290Z,5.48
2023-02-27T09:42:58.063Z,5.49
2023-02-27T09:45:28.023Z,5.37
2023-02-27T09:48:24.554Z,5.45
2023-02-27T09:50:52.666Z,5.56
2023-02-27T09:53:26.916Z,5.88
2023-02-27T09:56:18.809Z,6.36
2023-02-27T09:59:08.806Z,6.08
2023-02-27T10:01:55.510Z,5.49
2023-02-27T10:04:49.990Z,5.47
2023-02-27T10:07:23.295Z,5.99
2023-02-27T10:09:57.022Z,6.42
2023-02-27T10:12:24.122Z,6.72
2023-02-27T10:15:04.275Z,6.90
2023-02-27T10:17:37.028Z,7.09
2023-02-27T10:20:10.184Z,7.32
2023-02-27T10:22:42.851Z,7.08
2023-02-27T10:25:30.392Z,6.61
2023-02-27T10:28:03.681Z,6.88
2023-02-27T10:30:34.694Z,6.53
2023-02-27T10:33:09.680Z,6.10
2023-02-27T10:35:43.329Z,6.56
2023-02-27T10:38:15.660Z,7.12
2023-02-27T10:40:43.332Z,6.57
2023-02-27T10:43:14.947Z,6.96
2023-02-27T10:45:43.923Z,7.43
2023-02-27T10:48:12.379Z,7.91
2023-02-27T10:50:45.365Z,8.27
2023-02-27T10:53:27.700Z,8.17
2023-02-27T10:56:02.111Z,6.74
2023-02-27T10:58:35.221Z,7.29
2023-02-27T11:01:08.483Z,7.71
2023-02-27T11:03:40.826Z,7.40
2023-02-27T11:06:22.863Z,7.83
2023-02-27T11:09:22.647Z,7.90
2023-02-27T11:11:51.111Z,8.07
2023-02-27T11:14:28.016Z,8.31
2023-02-27T11:16:57.354Z,8.46
2023-02-27T11:19:36.036Z,8.26
2023-02-27T11:22:07.739Z,7.97
2023-02-27T11:24:35.483Z,8.26
2023-02-27T11:27:05.518Z,8.77
2023-02-27T11:29:35.923Z,8.74
2023-02-27T11:32:10.241Z,8.77
2023-02-27T11:34:50.572Z,9.01
2023-02-27T11:37:32.469Z,9.26
2023-02-27T11:40:08.975Z,9.37
2023-02-27T11:42:43.921Z,9.54
2023-02-27T11:46:09.320Z,8.99
2023-02-27T11:48:42.090Z,8.83
2023-02-27T11:51:23.300Z,8.96
2023-02-27T11:54:13.724Z,9.35
2023-02-27T11:56:47.800Z,9.98
2023-02-27T11:59:43.237Z,10.04
2023-02-27T12:02:53.315Z,10.08
2023-02-27T12:05:26.209Z,8.66
2023-02-27T12:08:01.554Z,7.65
2023-02-27T12:10:45.045Z,6.95
2023-02-27T12:13:15.710Z,7.15
2023-02-27T12:15:47.215Z,7.78
2023-02-27T12:18:44.010Z,7.43
2023-02-27T12:21:14.564Z,8.24
2023-02-27T12:23:43.967Z,8.75
2023-02-27T12:26:27.619Z,8.80
2023-02-27T12:29:23.191Z,8.99
2023-02-27T12:31:53.495Z,8.78
2023-02-27T12:34:29.474Z,8.25
2023-02-27T12:37:11.009Z,8.41
2023-02-27T12:39:39.783Z,8.23
2023-02-27T12:42:32.049Z,7.25
2023-02-27T12:45:17.788Z,6.91
2023-02-27T12:48:09.888Z,6.73
2023-02-27T12:50:52.054Z,6.20
2023-02-27T12:53:49.946Z,6.01
2023-02-27T12:56:21.509Z,5.88
2023-02-27T12:59:15.499Z,6.07
2023-02-27T13:02:00.469Z,5.97
2023-02-27T13:04:42.601Z,6.32
2023-02-27T13:07:18.814Z,6.41
2023-02-27T13:09:59.516Z,6.51
2023-02-27T13:12:35.114Z,6.54
2023-02-27T13:15:24.280Z,6.55
2023-02-27T13:18:02.810Z,6.91
2023-02-27T13:20:41.051Z,7.28
2023-02-27T13:23:23.144Z,7.68
2023-02-27T13:25:51.596Z,8.11
2023-02-27T13:28:23.144Z,8.76
2023-02-27T13:31:08.856Z,9.19
2023-02-27T13:33:48.166Z,9.41
2023-02-27T13:36:19.743Z,8.94
2023-02-27T13:38:49.729Z,8.48
2023-02-27T13:41:20.220Z,8.38
2023-02-27T13:43:53.254Z,7.53
2023-02-27T13:46:27.382Z,7.30
2023-02-27T13:49:10.603Z,8.14
2023-02-27T13:51:42.120Z,9.00
2023-02-27T13:54:33.024Z,9.34
2023-02-27T13:57:03.357Z,8.49
2023-02-27T13:59:31.433Z,7.13
2023-02-27T14:02:27.183Z,7.04
2023-02-27T14:04:56.811Z,7.61
2023-02-27T14:07:29.389Z,8.43
2023-02-27T14:10:01.594Z,8.96
2023-02-27T14:12:39.179Z,9.48
2023-02-27T14:15:23.810Z,8.99
2023-02-27T14:18:12.294Z,8.70
2023-02-27T14:20:41.425Z,9.12
2023-02-27T14:23:25.663Z,9.22
2023-02-27T14:26:02.619Z,8.73
2023-02-27T14:28:55.791Z,8.09
2023-02-27T14:31:35.238Z,7.51
2023-02-27T14:34:06.684Z,7.25
2023-02-27T14:36:43.961Z,7.11
2023-02-27T14:39:25.922Z,7.36
2023-02-27T14:42:04.834Z,7.51
2023-02-27T14:44:40.469Z,7.73
2023-02-27T14:47:14.877Z,7.52
2023-02-27T14:49:42.702Z,7.65
2023-02-27T14:52:31.160Z,7.99
2023-02-27T14:55:27.898Z,8.57
2023-02-27T14:57:57.960Z,8.81
2023-02-27T15:00:44.072Z,9.23
2023-02-27T15:03:21.347Z,8.55
2023-02-27T15:05:50.383Z,8.41
2023-02-27T15:08:21.265Z,8.83
2023-02-27T15:10:48.770Z,8.57
2023-02-27T15:13:44.631Z,8.59
2023-02-27T15:16:24.472Z,8.31
2023-02-27T15:19:01.221Z,7.95
2023-02-27T15:21:32.855Z,8.30
2023-02-27T15:24:03.722Z,8.63
2023-02-27T15:26:37.185Z,8.47
2023-02-27T15:29:05.788Z,8.10
2023-02-27T15:31:33.467Z,8.22
2023-02-27T15:34:01.442Z,8.50
2023-02-27T15:36:32.576Z,8.65
2023-02-27T15:39:11.926Z,8.74
2023-02-27T15:41:39.275Z,8.13
2023-02-27T15:44:06.847Z,8.28
2023-02-27T15:46:34.157Z,8.52
2023-02-27T15:49:01.411Z,8.57
2023-02-27T15:51:29.179Z,8.91
2023-02-27T15:53:59.385Z,9.21
2023-02-27T15:56:33.304Z,9.34
2023-02-27T15:59:02.677Z,8.98
2023-02-27T16:01:35.339Z,8.40
2023-02-27T16:04:06.980Z,8.46
2023-02-27T16:06:36.456Z,8.33
2023-02-27T16:09:08.110Z,8.05
2023-02-27T16:11:37.211Z,8.08
2023-02-27T16:14:06.015Z,7.44
2023-02-27T16:16:37.573Z,6.99
2023-02-27T16:19:22.729Z,6.54
2023-02-27T16:22:11.197Z,6.29
2023-02-27T16:24:38.602Z,6.11
2023-02-27T16:27:06.235Z,6.02
2023-02-27T16:29:40.517Z,5.83
2023-02-27T16:32:22.825Z,5.52
2023-02-27T16:34:50.383Z,5.38
2023-02-27T16:37:47.911Z,5.27
2023-02-27T16:40:19.444Z,5.16
2023-02-27T16:42:46.876Z,5.02
2023-02-27T16:45:20.011Z,4.94
2023-02-27T16:47:52.217Z,4.83
2023-02-27T16:50:25.341Z,4.69
2023-02-27T16:52:52.748Z,4.73
2023-02-27T16:55:20.567Z,4.59
2023-02-27T16:57:47.674Z,4.68
2023-02-27T17:00:16.872Z,4.60
2023-02-27T17:02:44.361Z,4.47
2023-02-27T17:05:11.608Z,4.44
2023-02-27T17:07:39.137Z,4.28
2023-02-27T17:10:06.507Z,4.26
2023-02-27T17:12:33.798Z,4.18
2023-02-27T17:15:01.249Z,4.05
2023-02-27T17:17:28.380Z,4.04
2023-02-27T17:19:55.458Z,3.88
2023-02-27T17:22:22.832Z,3.88
2023-02-27T17:24:49.936Z,3.81
2023-02-27T17:27:17.019Z,3.77
2023-02-27T17:29:44.498Z,3.77
2023-02-27T17:32:11.693Z,3.68
2023-02-27T17:34:39.395Z,3.57
2023-02-27T17:37:06.773Z,3.44
2023-02-27T17:39:33.872Z,3.35
2023-02-27T17:42:00.960Z,3.23
2023-02-27T17:44:28.447Z,3.05
2023-02-27T17:46:55.639Z,2.86
2023-02-27T17:49:22.838Z,2.85
2023-02-27T17:51:50.337Z,2.66
2023-02-27T17:54:17.599Z,2.48
2023-02-27T17:56:44.779Z,2.39
2023-02-27T17:59:12.177Z,2.29
2023-02-27T18:01:39.351Z,2.33
2023-02-27T18:04:08.052Z,2.13
2023-02-27T18:06:35.139Z,2.16
2023-02-27T18:09:02.234Z,2.03
2023-02-27T18:11:29.761Z,2.00
2023-02-27T18:13:56.903Z,1.96
2023-02-27T18:16:24.216Z,1.83
2023-02-27T18:18:51.654Z,1.69
2023-02-27T18:21:21.042Z,1.72
2023-02-27T18:23:49.630Z,1.65
2023-02-27T18:26:29.334Z,1.65
2023-02-27T18:29:02.221Z,1.55
2023-02-27T18:31:32.614Z,1.55
2023-02-27T18:34:00.898Z,1.40
2023-02-27T18:36:29.354Z,1.33
2023-02-27T18:38:57.486Z,1.25
2023-02-27T18:41:24.935Z,1.33
2023-02-27T18:43:52.882Z,1.66
2023-02-27T18:46:20.632Z,1.98
2023-02-27T18:48:47.868Z,2.28
2023-02-27T18:51:15.936Z,2.35
2023-02-27T18:53:47.402Z,2.64
2023-02-27T18:56:16.537Z,2.92
2023-02-27T18:58:44.088Z,2.79
2023-02-27T19:01:23.397Z,2.56
2023-02-27T19:03:51.265Z,2.45
2023-02-27T19:06:18.406Z,2.44
2023-02-27T19:08:46.210Z,2.50
2023-02-27T19:11:29.457Z,2.39
2023-02-27T19:13:57.981Z,2.44
2023-02-27T19:16:26.063Z,2.17
2023-02-27T19:18:57.556Z,2.11
2023-02-27T19:21:25.792Z,2.12
2023-02-27T19:23:56.498Z,2.08
2023-02-27T19:26:24.470Z,2.08
2023-02-27T19:28:53.867Z,2.21
2023-02-27T19:31:23.464Z,2.13
2023-02-27T19:33:51.104Z,2.11
2023-02-27T19:36:20.682Z,2.24
2023-02-27T19:38:48.724Z,2.22
2023-02-27T19:41:16.943Z,2.15
2023-02-27T19:43:44.658Z,2.64
2023-02-27T19:46:14.927Z,2.82
2023-02-27T19:48:45.490Z,2.75
2023-02-27T19:51:14.077Z,2.59
2023-02-27T19:53:42.813Z,2.67
2023-02-27T19:56:19.542Z,2.73
2023-02-27T19:58:48.160Z,2.83
2023-02-27T20:01:32.600Z,2.61
2023-02-27T20:04:00.352Z,2.71
2023-02-27T20:06:29.877Z,2.68
2023-02-27T20:08:58.075Z,2.64
2023-02-27T20:11:29.870Z,2.50
2023-02-27T20:13:57.119Z,2.46
2023-02-27T20:16:26.404Z,2.53
2023-02-27T20:18:54.375Z,2.21
2023-02-27T20:21:23.450Z,2.29
2023-02-27T20:23:51.854Z,2.30
2023-02-27T20:26:34.096Z,2.03
2023-02-27T20:29:04.560Z,2.01
2023-02-27T20:31:34.037Z,1.96
2023-02-27T20:34:01.723Z,2.18
2023-02-27T20:36:28.936Z,2.59
2023-02-27T20:38:56.327Z,2.77
2023-02-27T20:41:28.244Z,2.73
2023-02-27T20:43:57.288Z,2.86
2023-02-27T20:46:28.458Z,2.98
2023-02-27T20:48:57.765Z,2.74
2023-02-27T20:51:26.048Z,2.65
2023-02-27T20:53:55.528Z,2.65
2023-02-27T20:56:25.427Z,2.38
2023-02-27T20:58:52.998Z,2.20
2023-02-27T21:01:20.671Z,2.17
2023-02-27T21:03:50.974Z,2.22
2023-02-27T21:06:19.312Z,2.24
2023-02-27T21:08:51.201Z,2.34
2023-02-27T21:11:21.530Z,2.84
2023-02-27T21:13:50.041Z,2.78
2023-02-27T21:16:18.368Z,2.76
2023-02-27T21:18:46.444Z,2.66
2023-02-27T21:21:16.148Z,2.69
2023-02-27T21:23:43.658Z,2.85
2023-02-27T21:26:16.936Z,3.03
2023-02-27T21:28:47.890Z,2.93
2023-02-27T21:31:16.113Z,2.82
2023-02-27T21:33:43.584Z,2.71
2023-02-27T21:36:11.542Z,2.85
2023-02-27T21:38:39.283Z,2.60
2023-02-27T21:41:11.759Z,2.45
2023-02-27T21:43:40.597Z,2.53
2023-02-27T21:46:12.686Z,2.69
2023-02-27T21:48:40.270Z,3.13
2023-02-27T21:51:07.464Z,3.18
2023-02-27T21:53:36.651Z,3.27
2023-02-27T21:56:09.590Z,3.07
2023-02-27T21:58:37.578Z,3.18
2023-02-27T22:01:15.662Z,3.33
2023-02-27T22:03:45.117Z,3.31
2023-02-27T22:06:13.192Z,3.13
2023-02-27T22:08:41.022Z,3.22
2023-02-27T22:11:08.473Z,3.12
2023-02-27T22:13:36.038Z,2.94
2023-02-27T22:16:08.289Z,2.90
2023-02-27T22:18:36.316Z,2.84
2023-02-27T22:21:07.793Z,2.96
2023-02-27T22:23:35.162Z,3.12
2023-02-27T22:26:04.861Z,3.16
2023-02-27T22:28:32.937Z,3.29
2023-02-27T22:31:19.742Z,3.45
2023-02-27T22:33:49.749Z,3.04
2023-02-27T22:36:20.249Z,2.96
2023-02-27T22:38:48.219Z,3.00
2023-02-27T22:41:17.839Z,3.05
2023-02-27T22:43:45.369Z,3.17
2023-02-27T22:46:18.707Z,3.21
2023-02-27T22:48:45.893Z,3.34
2023-02-27T22:51:14.905Z,3.59
2023-02-27T22:53:44.947Z,3.66
2023-02-27T22:56:14.541Z,3.54
2023-02-27T22:58:43.855Z,3.58
2023-02-27T23:01:21.685Z,3.41
2023-02-27T23:03:50.422Z,3.50
2023-02-27T23:06:19.788Z,3.46
2023-02-27T23:08:47.206Z,3.48
2023-02-27T23:11:16.291Z,3.51
2023-02-27T23:13:43.704Z,3.48
2023-02-27T23:16:14.080Z,3.49
2023-02-27T23:18:46.062Z,3.42
2023-02-27T23:21:15.021Z,3.36
2023-02-27T23:23:43.035Z,3.51
2023-02-27T23:26:10.706Z,3.59
2023-02-27T23:28:37.963Z,3.65
2023-02-27T23:31:06.719Z,3.55
2023-02-27T23:33:34.516Z,3.60
2023-02-27T23:36:01.794Z,3.64
2023-02-27T23:38:29.740Z,3.57
2023-02-27T23:40:56.915Z,3.59
2023-02-27T23:43:24.311Z,3.58
2023-02-27T23:45:51.797Z,3.58
2023-02-27T23:48:21.898Z,3.72
2023-02-27T23:50:49.148Z,3.69
2023-02-27T23:53:16.642Z,3.67
2023-02-27T23:55:44.090Z,3.68
2023-02-27T23:58:11.321Z,3.69
